Rochester, NY

1:00 AM EDT on July 01, 2015 (GMT -0400)
Laurelton Area | | Change Station
CLOSE
Current Station
Personal Weather Station
Location: Rochester, NY
Elevation: 469 ft
Nearby Weather Stations

Elev 469 ft 43.17 °N, 77.55 °W | Updated 13 seconds ago

Overcast
Overcast
65.6 °F
Feels Like 65.6 °F
N
0.0
Wind Variable Wind from NW
Gusts 14.0 mph

Today
High -- | Low -- °F
--% Chance of Precip.
Yesterday
High -- | Low -- °F
Precip. -- in
5:34 AM 8:53 PM
Waxing Gibbous, 99% visible
Pressure 29.76 in
Visibility 10.0 miles
Clouds Scattered Clouds 5000 ft
Mostly Cloudy 8000 ft
Overcast 11000 ft
Dew Point 64 °F
Humidity 96%
Rainfall 0.00 in
Snow Depth Not available.
UV 0 out of 12
Pollen .60 out of 12
Air Quality Not available.
Flu Activity Not available.
METAR KROC 010354Z 00000KT 10SM -RA SCT050 BKN080 OVC110 19/18 A2976 RMK AO2 SLP078 P0003 T01940183

More Conditions Fewer Conditions

Pressure 29.76 in
Visibility 10.0 miles
Clouds Scattered Clouds 5000 ft
Mostly Cloudy 8000 ft
Overcast 11000 ft
Dew Point 64 °F
Humidity 96%
Rainfall 0.00 in
Snow Depth Not available.
UV 0 out of 12
Pollen .60 out of 12
Air Quality Not available.
Flu Activity Not available.
METAR KROC 010354Z 00000KT 10SM -RA SCT050 BKN080 OVC110 19/18 A2976 RMK AO2 SLP078 P0003 T01940183

More Conditions Fewer Conditions

10-Day Weather Forecast

×

Almanac

Astronomy

Jul. 01, 2015 Rise Set
Actual Time
Civil Twilight
Nautical Twilight
Astronomical Twilight
Moon
Length of Visible Light
Length of Day
Tomorrow will be .
, % of the Moon is Illuminated

Today's Extremes

State Highs State Lows

Community

WunderPhotos

Upload Photos

1,834,147 photos uploaded!

WunderBlogs® & News

Nearby

Air Quality

  Air Quality AQ Index Pollutant
Not available.

Snow Depth

Station Depth Elevation

Earthquake Activity

City Distance Mag. Time & Date
Minimum magnitude displayed is 2.5.

Coastal Water Temperatures

Place Temperature

Stations

Nearby Weather Stations

Station Location Temp. Windchill Dew Point Humidity Wind Precip. Elev Updated Type